Time;durP1;ratioP1;P1;durP2;ratioP2;P2;SDS_P1;SDS_P2;PMS_P1;PMS_P2;Temp;Humidity;BMP_temperature;BMP_pressure;BME280_temperature;BME280_humidity;BME280_pressure;Samples;Min_cycle;Max_cycle;Signal;HPM_P1;HPM_P2
2022/09/17 00:01:04;;;;;;;1.70;1.00;;;13.30;99.90;;;;;;5007316;28;20058;-81
2022/09/17 00:03:31;;;;;;;2.60;1.00;;;13.30;99.90;;;;;;5005448;28;20050;-82
2022/09/17 00:06:06;;;;;;;3.78;2.00;;;13.20;99.90;;;;;;5005237;28;20049;-80
2022/09/17 00:08:34;;;;;;;3.92;2.28;;;13.20;99.90;;;;;;5004126;28;20051;-80
2022/09/17 00:11:08;;;;;;;1.58;1.25;;;13.10;99.90;;;;;;5003117;28;20046;-80
2022/09/17 00:13:36;;;;;;;4.15;1.60;;;13.10;99.90;;;;;;5007050;28;20049;-80
2022/09/17 00:16:03;;;;;;;1.25;0.93;;;13.10;99.90;;;;;;5000704;28;20648;-81
2022/09/17 00:18:29;;;;;;;3.75;0.85;;;13.10;99.90;;;;;;4999465;28;20053;-81
2022/09/17 00:20:56;;;;;;;4.30;1.00;;;13.10;99.90;;;;;;5011991;28;20054;-81
2022/09/17 00:23:23;;;;;;;0.93;0.80;;;13.10;99.90;;;;;;4999267;28;20069;-80
2022/09/17 00:25:49;;;;;;;3.50;0.98;;;13.10;99.90;;;;;;4998984;28;20054;-81
2022/09/17 00:28:16;;;;;;;1.88;0.80;;;13.00;99.90;;;;;;4998273;28;20049;-83
2022/09/17 00:30:45;;;;;;;3.95;0.80;;;13.00;99.90;;;;;;4996115;28;20069;-80
2022/09/17 00:33:14;;;;;;;6.03;0.90;;;13.10;99.90;;;;;;5004808;28;20580;-80
2022/09/17 00:35:41;;;;;;;5.75;1.13;;;13.10;99.90;;;;;;5018539;28;20481;-80
2022/09/17 00:38:08;;;;;;;3.13;0.73;;;13.10;99.90;;;;;;5021103;28;20054;-80
2022/09/17 00:40:34;;;;;;;2.45;0.98;;;13.10;99.90;;;;;;5022175;28;20056;-80
2022/09/17 00:43:03;;;;;;;2.15;0.68;;;13.20;99.90;;;;;;5017934;28;20109;-80
2022/09/17 00:45:31;;;;;;;5.72;0.95;;;13.20;99.90;;;;;;5007595;28;20593;-80
2022/09/17 00:48:04;;;;;;;3.70;0.90;;;13.20;99.90;;;;;;5008356;28;20053;-80
2022/09/17 00:50:33;;;;;;;4.05;0.90;;;13.20;99.90;;;;;;5018370;28;20050;-82
2022/09/17 00:53:12;;;;;;;1.70;0.80;;;13.10;99.90;;;;;;5019921;28;20046;-80
2022/09/17 00:55:44;;;;;;;3.20;0.80;;;13.20;99.90;;;;;;5015519;28;20046;-83
2022/09/17 00:58:13;;;;;;;1.77;0.65;;;13.10;99.90;;;;;;5015165;28;20052;-84
2022/09/17 01:00:40;;;;;;;4.22;0.93;;;13.20;99.90;;;;;;5014327;28;20054;-82
2022/09/17 01:03:08;;;;;;;4.88;0.73;;;13.10;99.90;;;;;;5010164;28;20117;-82
2022/09/17 01:05:49;;;;;;;1.40;0.80;;;13.10;99.90;;;;;;5007249;28;20050;-82
2022/09/17 01:08:32;;;;;;;4.15;0.95;;;13.10;99.90;;;;;;5021698;28;20050;-82
2022/09/17 01:11:11;;;;;;;3.65;0.70;;;13.00;99.90;;;;;;5014001;28;20931;-82
2022/09/17 01:13:56;;;;;;;2.83;0.65;;;13.00;99.90;;;;;;5005538;28;20136;-82
2022/09/17 01:16:39;;;;;;;2.22;0.77;;;13.00;99.90;;;;;;5004421;28;20057;-82
2022/09/17 01:19:40;;;;;;;1.25;0.70;;;13.00;99.90;;;;;;5003757;28;20058;-82
2022/09/17 01:22:36;;;;;;;2.85;0.77;;;13.00;99.90;;;;;;5003219;28;20061;-83
2022/09/17 01:25:23;;;;;;;2.28;0.77;;;13.00;99.90;;;;;;4992864;28;20058;-82
2022/09/17 01:28:23;;;;;;;3.30;0.73;;;13.00;99.90;;;;;;5000762;28;20412;-81
2022/09/17 01:31:03;;;;;;;3.58;0.70;;;12.90;99.90;;;;;;4999035;28;20508;-82
2022/09/17 01:33:52;;;;;;;4.78;0.93;;;12.90;99.90;;;;;;4998271;28;20133;-81
2022/09/17 01:36:44;;;;;;;0.80;0.70;;;12.90;99.90;;;;;;4998244;28;20056;-81
2022/09/17 01:39:35;;;;;;;4.25;0.60;;;13.00;99.90;;;;;;4996079;28;20118;-82
2022/09/17 01:42:06;;;;;;;3.00;0.82;;;13.00;99.90;;;;;;5015742;28;20058;-82
2022/09/17 01:44:46;;;;;;;1.00;0.57;;;12.90;99.90;;;;;;5017973;28;20077;-80
2022/09/17 01:47:38;;;;;;;5.32;0.90;;;12.90;99.90;;;;;;5002754;28;20095;-81
2022/09/17 01:50:20;;;;;;;5.07;1.30;;;12.80;99.90;;;;;;5006969;28;20053;-82
2022/09/17 01:52:51;;;;;;;1.20;0.70;;;12.80;99.90;;;;;;5012871;28;20050;-82
2022/09/17 01:55:18;;;;;;;;;;;12.80;99.90;;;;;;5012562;28;20042;-82
2022/09/17 01:58:18;;;;;;;1.33;0.50;;;12.80;99.90;;;;;;5008380;28;19921;-82
2022/09/17 02:00:50;;;;;;;2.95;0.95;;;12.80;99.90;;;;;;5001218;28;20046;-83
2022/09/17 02:03:41;;;;;;;2.13;0.90;;;12.80;99.90;;;;;;5003989;28;20058;-82
2022/09/17 02:06:19;;;;;;;1.58;0.70;;;12.80;99.90;;;;;;5007140;28;20064;-81
2022/09/17 02:09:01;;;;;;;1.95;0.98;;;12.80;99.90;;;;;;5006734;28;20050;-81
2022/09/17 02:11:29;;;;;;;0.70;0.60;;;12.80;99.90;;;;;;5005064;28;20141;-82
2022/09/17 02:14:04;;;;;;;1.92;0.60;;;12.80;99.90;;;;;;5005848;28;20053;-82
2022/09/17 02:16:34;;;;;;;1.75;0.52;;;12.80;99.90;;;;;;5010142;28;20060;-83
2022/09/17 02:19:06;;;;;;;1.42;0.55;;;12.80;99.90;;;;;;4998908;28;20061;-83
2022/09/17 02:21:51;;;;;;;1.77;0.63;;;12.80;99.90;;;;;;5005518;28;20050;-81
2022/09/17 02:24:28;;;;;;;0.93;0.50;;;12.80;99.90;;;;;;5004351;28;20058;-81
2022/09/17 02:27:13;;;;;;;2.55;0.60;;;12.90;99.90;;;;;;5011712;28;20049;-82
2022/09/17 02:29:42;;;;;;;2.75;0.75;;;12.80;99.90;;;;;;5019866;28;20049;-82
2022/09/17 02:32:10;;;;;;;3.38;0.68;;;12.70;99.90;;;;;;5004223;28;20050;-82
2022/09/17 02:34:37;;;;;;;4.45;0.55;;;12.80;99.90;;;;;;5016690;28;20061;-83
2022/09/17 02:37:05;;;;;;;1.85;0.75;;;12.70;99.90;;;;;;5010023;28;20061;-81
2022/09/17 02:39:32;;;;;;;5.50;0.68;;;12.80;99.90;;;;;;5008338;28;20054;-81
2022/09/17 02:42:16;;;;;;;4.45;0.77;;;12.80;99.90;;;;;;5001294;28;20108;-80
2022/09/17 02:45:11;;;;;;;0.88;0.50;;;12.80;99.90;;;;;;4999475;28;20062;-83
2022/09/17 02:47:59;;;;;;;4.03;0.77;;;12.80;99.90;;;;;;5015612;28;20046;-81
2022/09/17 02:50:47;;;;;;;2.22;0.60;;;12.80;99.90;;;;;;5017663;28;20046;-82
2022/09/17 02:53:31;;;;;;;4.05;0.95;;;12.90;99.90;;;;;;5016877;28;20388;-80
2022/09/17 02:56:16;;;;;;;2.70;0.60;;;12.90;99.90;;;;;;5001124;28;20072;-80
2022/09/17 02:59:09;;;;;;;1.15;0.60;;;12.90;99.90;;;;;;5014793;28;20061;-80
2022/09/17 03:01:43;;;;;;;2.13;1.00;;;12.90;99.90;;;;;;5015662;28;20050;-82
2022/09/17 03:04:15;;;;;;;3.17;1.10;;;12.90;99.90;;;;;;5009885;28;20054;-82
2022/09/17 03:06:45;;;;;;;3.00;0.80;;;12.90;99.90;;;;;;5013539;28;20058;-82
2022/09/17 03:09:15;;;;;;;1.25;0.50;;;12.90;99.90;;;;;;5008629;28;20060;-82
2022/09/17 03:11:42;;;;;;;3.22;0.63;;;12.90;99.90;;;;;;5011196;28;20057;-80
2022/09/17 03:14:08;;;;;;;2.58;0.73;;;13.00;99.90;;;;;;5009780;28;20046;-83
2022/09/17 03:16:35;;;;;;;4.70;0.50;;;13.00;99.90;;;;;;5015689;28;20054;-82
2022/09/17 03:19:02;;;;;;;0.93;0.60;;;12.90;99.90;;;;;;5007908;28;20058;-80
2022/09/17 03:21:30;;;;;;;3.63;0.93;;;13.00;99.90;;;;;;5008606;28;20054;-82
2022/09/17 03:23:59;;;;;;;3.38;0.50;;;13.00;99.90;;;;;;5004422;28;20064;-81
2022/09/17 03:26:26;;;;;;;4.07;0.88;;;13.00;99.90;;;;;;5006932;28;20050;-82
2022/09/17 03:28:53;;;;;;;1.10;0.52;;;13.00;99.90;;;;;;5004360;28;20135;-81
2022/09/17 03:31:19;;;;;;;1.83;0.63;;;13.00;99.90;;;;;;5014559;28;20521;-81
2022/09/17 03:33:46;;;;;;;9.70;0.90;;;13.10;99.90;;;;;;5010067;28;20050;-80
2022/09/17 03:36:13;;;;;;;2.00;0.60;;;13.10;99.90;;;;;;5002297;28;20050;-80
2022/09/17 03:38:39;;;;;;;2.67;0.68;;;13.10;99.90;;;;;;5003137;28;20281;-80
2022/09/17 03:41:06;;;;;;;3.63;0.70;;;13.00;99.90;;;;;;5001475;28;20061;-81
2022/09/17 03:43:33;;;;;;;7.53;0.90;;;13.00;99.90;;;;;;5000303;28;20064;-80
2022/09/17 03:46:00;;;;;;;1.95;0.60;;;13.00;99.90;;;;;;5000246;28;20051;-84
2022/09/17 03:48:28;;;;;;;3.35;0.60;;;13.00;99.90;;;;;;4999041;28;20101;-82
2022/09/17 03:50:55;;;;;;;3.47;0.60;;;13.00;99.90;;;;;;4998875;28;20050;-81
2022/09/17 03:53:22;;;;;;;4.82;0.70;;;13.00;99.90;;;;;;5008422;28;20049;-82
2022/09/17 03:55:49;;;;;;;2.15;0.40;;;13.00;99.90;;;;;;5017432;28;20500;-82
2022/09/17 03:58:16;;;;;;;2.65;0.70;;;13.00;99.90;;;;;;5016955;28;20050;-82
2022/09/17 04:00:43;;;;;;;2.22;0.57;;;13.10;99.90;;;;;;5012044;28;20046;-82
2022/09/17 04:03:09;;;;;;;3.63;0.75;;;13.00;99.90;;;;;;5018402;28;20056;-81
2022/09/17 04:05:36;;;;;;;1.73;0.57;;;13.10;99.90;;;;;;5004642;28;20051;-81
2022/09/17 04:08:03;;;;;;;3.55;0.57;;;13.10;99.90;;;;;;4997211;28;20058;-81
2022/09/17 04:10:29;;;;;;;5.53;1.02;;;13.10;99.90;;;;;;5001926;28;20418;-81
2022/09/17 04:12:56;;;;;;;2.15;0.82;;;13.10;99.90;;;;;;5003640;28;20511;-80
2022/09/17 04:15:23;;;;;;;3.65;1.02;;;13.10;99.90;;;;;;5002972;28;20057;-82
2022/09/17 04:17:49;;;;;;;4.35;0.90;;;13.10;99.90;;;;;;5004180;28;20453;-82
2022/09/17 04:20:16;;;;;;;2.63;0.70;;;13.10;99.90;;;;;;5012951;28;20049;-82
2022/09/17 04:22:43;;;;;;;1.20;0.60;;;13.10;99.90;;;;;;5007884;28;20057;-80
2022/09/17 04:25:10;;;;;;;4.32;0.70;;;13.10;99.90;;;;;;5008322;28;20057;-82
2022/09/17 04:27:37;;;;;;;2.15;1.10;;;13.00;99.90;;;;;;5005738;28;20050;-81
2022/09/17 04:30:04;;;;;;;3.72;0.80;;;13.00;99.90;;;;;;5005118;28;20056;-80
2022/09/17 04:32:31;;;;;;;2.63;0.60;;;13.00;99.90;;;;;;5005143;28;20058;-82
2022/09/17 04:34:57;;;;;;;2.78;0.68;;;13.00;99.90;;;;;;5012889;28;20046;-82
2022/09/17 04:37:24;;;;;;;0.82;0.63;;;13.00;99.90;;;;;;5005637;28;20435;-80
2022/09/17 04:39:51;;;;;;;2.55;0.80;;;13.00;99.90;;;;;;5002717;28;20516;-80
2022/09/17 04:42:18;;;;;;;4.00;0.90;;;13.00;99.90;;;;;;5008659;28;20140;-80
2022/09/17 04:44:45;;;;;;;1.20;0.50;;;13.00;99.90;;;;;;5011210;28;20061;-80
2022/09/17 04:47:11;;;;;;;1.80;0.73;;;12.90;99.90;;;;;;5011417;28;20483;-79
2022/09/17 04:49:38;;;;;;;2.75;0.88;;;12.90;99.90;;;;;;5011381;28;20049;-80
2022/09/17 04:52:05;;;;;;;1.60;0.50;;;13.00;99.90;;;;;;5012462;28;20061;-79
2022/09/17 04:54:31;;;;;;;0.95;0.50;;;12.90;99.90;;;;;;5012739;28;20056;-80
2022/09/17 04:56:59;;;;;;;4.63;0.65;;;12.90;99.90;;;;;;5006911;28;20047;-81
2022/09/17 04:59:26;;;;;;;6.13;1.15;;;12.90;99.90;;;;;;5003783;28;20054;-82
2022/09/17 05:01:52;;;;;;;4.15;1.42;;;12.80;99.90;;;;;;5012821;28;20058;-81
2022/09/17 05:04:19;;;;;;;2.50;1.40;;;12.80;99.90;;;;;;5012554;28;20416;-80
2022/09/17 05:06:46;;;;;;;2.13;0.82;;;12.70;99.90;;;;;;5013079;28;20662;-80
2022/09/17 05:09:13;;;;;;;4.05;0.80;;;12.60;99.90;;;;;;4995782;28;20078;-81
2022/09/17 05:11:40;;;;;;;1.48;0.80;;;12.50;99.90;;;;;;4995514;28;20054;-81
2022/09/17 05:14:07;;;;;;;2.60;1.00;;;12.50;99.90;;;;;;5000078;28;20412;-82
2022/09/17 05:16:34;;;;;;;3.20;0.95;;;12.40;99.90;;;;;;5003517;28;20500;-80
2022/09/17 05:19:01;;;;;;;3.42;1.05;;;12.40;99.90;;;;;;5008064;28;20050;-81
2022/09/17 05:21:28;;;;;;;1.23;0.85;;;12.50;99.90;;;;;;5011730;28;20054;-82
2022/09/17 05:23:54;;;;;;;2.65;0.90;;;12.50;99.90;;;;;;5007511;28;20045;-81
2022/09/17 05:26:21;;;;;;;4.78;1.00;;;12.50;99.90;;;;;;5007449;28;20049;-79
2022/09/17 05:28:47;;;;;;;4.07;0.73;;;12.60;99.90;;;;;;5006821;28;20046;-81
2022/09/17 05:31:14;;;;;;;4.90;0.95;;;12.60;99.90;;;;;;5005723;28;20057;-81
2022/09/17 05:33:41;;;;;;;4.32;0.90;;;12.60;99.90;;;;;;5005138;28;20046;-80
2022/09/17 05:36:08;;;;;;;2.80;0.85;;;12.60;99.90;;;;;;5004024;28;20097;-81
2022/09/17 05:38:34;;;;;;;1.77;1.17;;;12.60;99.90;;;;;;5003780;28;20050;-81
2022/09/17 05:41:05;;;;;;;3.00;0.80;;;12.60;99.90;;;;;;5001552;28;20063;-81
2022/09/17 05:43:32;;;;;;;2.13;0.90;;;12.60;99.90;;;;;;5003103;28;20062;-80
2022/09/17 05:46:03;;;;;;;4.70;0.85;;;12.60;99.90;;;;;;5002092;28;20057;-82
2022/09/17 05:48:30;;;;;;;4.80;1.50;;;12.60;99.90;;;;;;5000199;28;20052;-81
2022/09/17 05:50:57;;;;;;;3.15;1.23;;;12.60;99.90;;;;;;5004376;28;20497;-81
2022/09/17 05:53:23;;;;;;;4.00;0.90;;;12.60;99.90;;;;;;5002835;28;20046;-81
2022/09/17 05:55:50;;;;;;;2.88;1.00;;;12.60;99.90;;;;;;5002900;28;20050;-82
2022/09/17 05:58:18;;;;;;;3.80;0.90;;;12.60;99.90;;;;;;5001346;28;20109;-80
2022/09/17 06:00:47;;;;;;;3.83;1.17;;;12.60;99.90;;;;;;4998135;28;20061;-81
2022/09/17 06:03:16;;;;;;;4.38;1.10;;;12.60;99.90;;;;;;4998384;28;20137;-80
2022/09/17 06:05:52;;;;;;;1.60;0.90;;;12.70;99.90;;;;;;5005636;28;20423;-80
2022/09/17 06:08:19;;;;;;;3.13;1.40;;;12.70;99.90;;;;;;4999632;28;20055;-82
2022/09/17 06:10:46;;;;;;;5.47;1.58;;;12.70;99.90;;;;;;4999749;28;20053;-82
2022/09/17 06:13:12;;;;;;;2.08;0.68;;;12.70;99.90;;;;;;5001000;28;20073;-80
2022/09/17 06:15:39;;;;;;;6.38;0.70;;;12.70;99.90;;;;;;5002252;28;20057;-84
2022/09/17 06:18:06;;;;;;;4.35;0.77;;;12.70;99.90;;;;;;5003110;28;20052;-80
2022/09/17 06:20:32;;;;;;;3.33;1.00;;;12.80;99.90;;;;;;5000798;28;20050;-81
2022/09/17 06:22:59;;;;;;;1.55;0.85;;;12.80;99.90;;;;;;5002329;28;20061;-81
2022/09/17 06:25:26;;;;;;;4.30;1.42;;;12.80;99.90;;;;;;5019440;28;20046;-83
2022/09/17 06:27:52;;;;;;;5.45;1.10;;;12.90;99.90;;;;;;5026704;28;20076;-83
2022/09/17 06:30:19;;;;;;;4.47;0.70;;;12.90;99.90;;;;;;5025804;28;20060;-84
2022/09/17 06:32:45;;;;;;;3.97;0.73;;;12.90;99.90;;;;;;5027430;28;20046;-82
2022/09/17 06:35:12;;;;;;;2.55;0.90;;;13.00;99.90;;;;;;5027306;28;20043;-84
2022/09/17 06:37:39;;;;;;;2.05;1.05;;;13.00;99.90;;;;;;5029311;28;20058;-81
2022/09/17 06:40:07;;;;;;;1.67;0.80;;;13.00;99.90;;;;;;5016601;28;20069;-82
2022/09/17 06:42:34;;;;;;;2.08;0.88;;;13.00;99.90;;;;;;5018811;28;20072;-81
2022/09/17 06:45:01;;;;;;;3.90;0.90;;;13.00;99.90;;;;;;5013310;28;20046;-80
2022/09/17 06:47:35;;;;;;;2.10;0.90;;;13.00;99.90;;;;;;5005136;28;20116;-80
2022/09/17 06:50:01;;;;;;;1.85;0.90;;;13.00;99.90;;;;;;5004525;28;20050;-81
2022/09/17 06:52:28;;;;;;;2.83;0.80;;;13.10;99.90;;;;;;5003704;28;20415;-80
2022/09/17 06:54:55;;;;;;;2.47;1.15;;;13.10;99.90;;;;;;5002869;28;20421;-80
2022/09/17 06:57:22;;;;;;;3.88;1.10;;;13.10;99.90;;;;;;5003497;28;20046;-80
2022/09/17 06:59:49;;;;;;;2.88;0.95;;;13.20;99.90;;;;;;4997979;28;20424;-81
2022/09/17 07:02:15;;;;;;;3.47;0.90;;;13.30;99.90;;;;;;4998472;28;20057;-82
2022/09/17 07:04:42;;;;;;;2.20;0.85;;;13.30;99.90;;;;;;5010343;28;20085;-80
2022/09/17 07:07:09;;;;;;;2.60;0.70;;;13.40;99.90;;;;;;4999814;28;20050;-83
2022/09/17 07:09:35;;;;;;;2.97;1.35;;;13.50;99.90;;;;;;4999082;28;20050;-81
2022/09/17 07:12:06;;;;;;;3.05;0.77;;;13.50;99.90;;;;;;5009503;28;20046;-81
2022/09/17 07:14:33;;;;;;;4.03;0.93;;;13.60;99.90;;;;;;5017102;28;20467;-82
2022/09/17 07:17:00;;;;;;;1.15;0.82;;;13.70;99.90;;;;;;5016160;28;20046;-82
2022/09/17 07:19:26;;;;;;;3.33;0.95;;;13.70;99.90;;;;;;5015034;28;20050;-80
2022/09/17 07:21:53;;;;;;;7.78;1.02;;;13.80;99.90;;;;;;5014733;28;20049;-80
2022/09/17 07:24:20;;;;;;;2.05;0.90;;;13.80;99.90;;;;;;4997865;28;20409;-82
2022/09/17 07:26:46;;;;;;;1.02;0.70;;;13.80;99.90;;;;;;4998849;28;20061;-80
2022/09/17 07:29:13;;;;;;;1.38;0.80;;;13.90;99.90;;;;;;5000959;28;20516;-81
2022/09/17 07:31:39;;;;;;;6.85;1.15;;;13.90;99.90;;;;;;5007114;28;20488;-81
2022/09/17 07:34:06;;;;;;;5.57;1.20;;;13.90;99.90;;;;;;5006197;28;20056;-82
2022/09/17 07:36:33;;;;;;;2.60;0.80;;;13.90;99.90;;;;;;5010266;28;20436;-81
2022/09/17 07:38:59;;;;;;;8.52;0.75;;;13.90;99.90;;;;;;5009107;28;20037;-82
2022/09/17 07:41:26;;;;;;;4.45;1.02;;;13.80;99.90;;;;;;5006311;28;20076;-82
2022/09/17 07:43:56;;;;;;;4.50;1.00;;;13.90;99.90;;;;;;5012241;28;20042;-82
2022/09/17 07:46:22;;;;;;;2.58;0.80;;;13.90;99.90;;;;;;5005278;28;20042;-81
2022/09/17 07:48:50;;;;;;;4.40;1.00;;;13.80;99.90;;;;;;5008403;28;20546;-83
2022/09/17 07:51:22;;;;;;;3.83;1.15;;;13.80;99.90;;;;;;5014927;28;20042;-82
2022/09/17 07:53:57;;;;;;;3.17;1.10;;;13.70;99.90;;;;;;5011478;28;20049;-81
2022/09/17 07:56:25;;;;;;;2.33;1.08;;;13.60;99.90;;;;;;5020471;28;20053;-82
2022/09/17 07:58:53;;;;;;;0.68;0.68;;;13.60;99.90;;;;;;5007753;28;20110;-81
2022/09/17 08:01:21;;;;;;;2.92;1.20;;;13.60;99.90;;;;;;5006597;28;20052;-82
2022/09/17 08:03:53;;;;;;;7.00;1.38;;;13.60;99.90;;;;;;5007577;28;20129;-82
2022/09/17 08:06:24;;;;;;;4.20;0.90;;;13.60;99.90;;;;;;5008006;28;20054;-81
2022/09/17 08:08:51;;;;;;;3.35;0.93;;;13.60;99.90;;;;;;5005036;28;20046;-82
2022/09/17 08:11:23;;;;;;;3.15;1.08;;;13.60;99.90;;;;;;5003745;28;20042;-81
2022/09/17 08:14:12;;;;;;;2.45;0.80;;;13.70;99.90;;;;;;5000191;28;20053;-81
2022/09/17 08:16:40;;;;;;;2.25;0.77;;;13.80;99.90;;;;;;5010087;28;20037;-82
2022/09/17 08:19:09;;;;;;;3.30;0.80;;;13.90;99.90;;;;;;5006769;28;20054;-82
2022/09/17 08:21:36;;;;;;;1.47;0.70;;;14.00;99.90;;;;;;4998865;28;20038;-82
2022/09/17 08:24:03;;;;;;;9.63;1.13;;;14.10;99.90;;;;;;5004276;28;20042;-81
2022/09/17 08:26:30;;;;;;;2.58;0.70;;;14.20;99.90;;;;;;4999791;28;20053;-84
2022/09/17 08:28:57;;;;;;;1.83;0.68;;;14.30;99.90;;;;;;5012019;28;20053;-83
2022/09/17 08:31:29;;;;;;;4.10;0.90;;;14.40;99.90;;;;;;5005107;28;20532;-83
2022/09/17 08:33:56;;;;;;;2.17;1.00;;;14.40;99.90;;;;;;5008994;28;20042;-83
2022/09/17 08:36:24;;;;;;;3.22;1.00;;;14.40;99.90;;;;;;5008279;28;20050;-83
2022/09/17 08:38:53;;;;;;;1.27;0.73;;;14.50;99.90;;;;;;5004696;28;20466;-82
2022/09/17 08:41:29;;;;;;;3.33;0.70;;;14.60;99.90;;;;;;5026839;28;20137;-83
2022/09/17 08:44:25;;;;;;;2.90;0.70;;;14.70;99.90;;;;;;5012259;28;20129;-82
2022/09/17 08:47:17;;;;;;;5.15;0.88;;;14.70;99.90;;;;;;5020884;28;20109;-83
2022/09/17 08:49:53;;;;;;;2.40;0.80;;;14.80;99.90;;;;;;5009646;28;20065;-82
2022/09/17 08:52:58;;;;;;;1.83;0.60;;;15.00;99.90;;;;;;5009430;28;20041;-83
2022/09/17 08:55:47;;;;;;;1.73;0.47;;;15.10;99.90;;;;;;5006064;28;20042;-84
2022/09/17 08:58:42;;;;;;;1.48;0.93;;;15.20;99.90;;;;;;5012053;28;20506;-83
2022/09/17 09:01:34;;;;;;;3.78;0.90;;;15.20;99.90;;;;;;5006141;28;20057;-85
2022/09/17 09:04:01;;;;;;;2.38;0.93;;;15.30;99.90;;;;;;5011202;28;20168;-85
2022/09/17 09:06:41;;;;;;;2.78;0.63;;;15.30;99.90;;;;;;5010658;28;20054;-84
2022/09/17 09:09:15;;;;;;;1.70;0.70;;;15.30;99.90;;;;;;5001515;28;20560;-84
2022/09/17 09:11:45;;;;;;;3.63;0.80;;;15.30;99.90;;;;;;5011305;28;20057;-84
2022/09/17 09:14:23;;;;;;;2.97;0.70;;;15.30;99.90;;;;;;5011983;28;20072;-82
2022/09/17 09:16:52;;;;;;;3.42;0.55;;;15.20;99.90;;;;;;5013599;28;20057;-84
2022/09/17 09:19:22;;;;;;;3.33;0.68;;;15.20;99.90;;;;;;4997756;28;20200;-82
2022/09/17 09:22:02;;;;;;;4.10;0.70;;;15.20;99.90;;;;;;5010749;28;20448;-82
2022/09/17 09:25:12;;;;;;;0.75;0.47;;;15.10;99.90;;;;;;4999231;28;20503;-84
2022/09/17 09:27:59;;;;;;;3.22;0.63;;;15.20;99.90;;;;;;5014612;28;20397;-82
2022/09/17 09:30:37;;;;;;;2.85;0.47;;;15.30;99.90;;;;;;5011253;28;20106;-84
2022/09/17 09:33:13;;;;;;;1.83;0.70;;;15.40;99.90;;;;;;5020879;28;20042;-82
2022/09/17 09:35:43;;;;;;;0.95;0.30;;;15.50;99.90;;;;;;5005177;28;20053;-83
2022/09/17 09:38:09;;;;;;;2.00;0.40;;;15.40;99.90;;;;;;5011021;28;20039;-83
2022/09/17 09:40:39;;;;;;;0.75;0.38;;;15.40;99.90;;;;;;5011467;28;20061;-82
2022/09/17 09:43:40;;;;;;;2.45;0.80;;;15.40;99.90;;;;;;5002741;28;20108;-83
2022/09/17 09:46:48;;;;;;;1.55;0.50;;;15.30;99.90;;;;;;5004873;28;20053;-84
2022/09/17 09:49:24;;;;;;;1.88;0.80;;;15.20;99.90;;;;;;5021646;28;20418;-83
2022/09/17 09:52:15;;;;;;;2.60;0.52;;;15.10;99.90;;;;;;5010405;28;20422;-83
2022/09/17 09:55:03;;;;;;;2.15;0.80;;;15.00;99.90;;;;;;5005005;28;20049;-82
2022/09/17 09:57:44;;;;;;;5.53;0.88;;;14.80;99.90;;;;;;5009224;28;20069;-83
2022/09/17 10:00:26;;;;;;;5.05;0.70;;;14.70;99.90;;;;;;5006884;28;20053;-83
2022/09/17 10:03:19;;;;;;;3.60;1.00;;;14.60;99.90;;;;;;5013338;28;20056;-84
2022/09/17 10:05:57;;;;;;;6.22;3.28;;;14.30;99.90;;;;;;5014166;28;20042;-82
2022/09/17 10:08:26;;;;;;;5.57;2.60;;;14.20;99.90;;;;;;5009474;28;20065;-82
2022/09/17 10:11:12;;;;;;;6.35;1.95;;;14.10;99.90;;;;;;5008282;28;20488;-84
2022/09/17 10:13:40;;;;;;;4.78;1.02;;;14.10;99.90;;;;;;5014341;28;20042;-83
2022/09/17 10:16:17;;;;;;;4.57;1.20;;;14.10;99.90;;;;;;5012391;28;20042;-84
2022/09/17 10:18:45;;;;;;;3.50;0.85;;;14.00;99.90;;;;;;5004412;28;20046;-83
2022/09/17 10:21:33;;;;;;;4.50;1.15;;;14.00;99.90;;;;;;5003614;28;20060;-83
2022/09/17 10:24:02;;;;;;;3.30;1.25;;;14.00;99.90;;;;;;5004604;28;20105;-82
2022/09/17 10:26:33;;;;;;;3.85;1.00;;;14.00;99.90;;;;;;5009160;28;20085;-83
2022/09/17 10:29:20;;;;;;;1.65;0.88;;;14.00;99.90;;;;;;5006995;28;20057;-84
2022/09/17 10:31:51;;;;;;;7.22;1.35;;;14.00;99.90;;;;;;5004039;28;20519;-83
2022/09/17 10:34:26;;;;;;;1.45;0.75;;;14.10;99.90;;;;;;5007701;28;20093;-83
2022/09/17 10:36:57;;;;;;;3.67;1.00;;;14.10;99.90;;;;;;5019480;28;20058;-84
2022/09/17 10:39:30;;;;;;;3.58;1.30;;;14.20;99.90;;;;;;5012009;28;20049;-83
2022/09/17 10:41:57;;;;;;;3.63;1.27;;;14.10;99.90;;;;;;5008456;28;20073;-83
2022/09/17 10:44:25;;;;;;;3.75;1.50;;;14.10;99.90;;;;;;5016844;28;20076;-84
2022/09/17 10:46:53;;;;;;;5.00;1.40;;;14.20;99.90;;;;;;5006226;28;20129;-83
2022/09/17 10:49:33;;;;;;;13.00;7.25;;;14.10;99.90;;;;;;5014749;28;20089;-82
2022/09/17 10:52:44;;;;;;;18.67;10.27;;;14.10;99.90;;;;;;5009500;28;20046;-82
2022/09/17 10:55:22;;;;;;;12.30;7.43;;;14.00;99.90;;;;;;4983904;28;20054;-83
2022/09/17 10:58:02;;;;;;;3.38;1.77;;;14.00;99.90;;;;;;5026785;28;20068;-84
2022/09/17 11:00:48;;;;;;;6.35;1.90;;;14.10;99.90;;;;;;5012801;28;20241;-84
2022/09/17 11:03:48;;;;;;;2.28;1.30;;;14.20;99.90;;;;;;5016089;28;20058;-83
2022/09/17 11:06:27;;;;;;;2.75;0.93;;;14.40;99.90;;;;;;5022513;28;20065;-84
2022/09/17 11:09:39;;;;;;;4.55;1.23;;;14.50;99.90;;;;;;5018122;28;20057;-83
2022/09/17 11:12:43;;;;;;;2.53;1.30;;;14.70;99.90;;;;;;5011858;28;20053;-83
2022/09/17 11:15:28;;;;;;;4.25;1.02;;;14.90;99.90;;;;;;5027418;28;20057;-83
2022/09/17 11:18:04;;;;;;;2.17;0.85;;;14.90;99.90;;;;;;5012756;28;20049;-83
2022/09/17 11:20:52;;;;;;;2.97;0.95;;;15.00;99.90;;;;;;5025652;28;20054;-83
2022/09/17 11:23:42;;;;;;;2.47;0.73;;;15.00;99.90;;;;;;5040582;28;20060;-83
2022/09/17 11:26:26;;;;;;;3.55;1.00;;;15.10;99.90;;;;;;5017825;28;20048;-83
2022/09/17 11:29:39;;;;;;;4.00;1.00;;;15.10;99.90;;;;;;4998208;28;20404;-82
2022/09/17 11:32:25;;;;;;;4.32;0.80;;;15.20;99.90;;;;;;5004036;28;20069;-83
2022/09/17 11:35:24;;;;;;;3.10;0.55;;;15.30;99.90;;;;;;5012335;28;20058;-83
2022/09/17 11:38:19;;;;;;;5.82;1.30;;;15.40;99.90;;;;;;4997668;28;20064;-84
2022/09/17 11:41:01;;;;;;;6.70;1.25;;;15.50;99.90;;;;;;5013276;28;20050;-84
2022/09/17 11:43:45;;;;;;;5.00;0.80;;;15.60;99.90;;;;;;4998658;28;20057;-83
2022/09/17 11:46:31;;;;;;;1.50;0.60;;;15.50;99.90;;;;;;5007037;28;20053;-81
2022/09/17 11:49:11;;;;;;;6.13;1.83;;;15.50;99.90;;;;;;5011699;28;20050;-83
2022/09/17 11:52:10;;;;;;;4.30;1.17;;;15.40;99.90;;;;;;5011158;28;20046;-83
2022/09/17 11:54:48;;;;;;;3.38;0.93;;;15.30;99.90;;;;;;4996968;28;20082;-82
2022/09/17 11:57:21;;;;;;;9.27;1.10;;;15.10;99.90;;;;;;5008988;28;20184;-82
2022/09/17 12:00:16;;;;;;;5.43;1.50;;;15.00;99.90;;;;;;5013483;28;20077;-83
2022/09/17 12:03:12;;;;;;;5.95;1.27;;;15.00;99.90;;;;;;5008100;28;20081;-82
2022/09/17 12:05:45;;;;;;;3.35;0.98;;;15.00;99.90;;;;;;5006062;28;20114;-82
2022/09/17 12:08:49;;;;;;;3.70;1.02;;;15.00;99.90;;;;;;5006219;28;20081;-83
2022/09/17 12:11:31;;;;;;;5.65;1.08;;;15.20;99.90;;;;;;5005879;28;20112;-82
2022/09/17 12:14:18;;;;;;;3.10;0.93;;;15.30;99.90;;;;;;5006716;28;20125;-82
2022/09/17 12:16:51;;;;;;;2.63;1.10;;;15.40;99.90;;;;;;5003889;28;20058;-83
2022/09/17 12:19:45;;;;;;;8.25;1.38;;;15.40;99.90;;;;;;5012253;28;20125;-82
2022/09/17 12:22:25;;;;;;;2.75;1.23;;;15.50;99.90;;;;;;5001936;28;20156;-82
2022/09/17 12:24:53;;;;;;;2.97;1.45;;;15.50;99.90;;;;;;4984064;28;20500;-82
2022/09/17 12:28:02;;;;;;;2.42;1.02;;;15.50;99.90;;;;;;4997475;28;20046;-82
2022/09/17 12:30:37;;;;;;;3.63;0.90;;;15.50;99.90;;;;;;5005609;28;20078;-83
2022/09/17 12:33:45;;;;;;;2.63;0.75;;;15.60;99.90;;;;;;5001636;28;20503;-83
2022/09/17 12:36:15;;;;;;;1.60;0.75;;;15.60;99.90;;;;;;4977015;28;20470;-83
2022/09/17 12:39:03;;;;;;;2.65;0.70;;;15.70;99.90;;;;;;4995557;28;20047;-82
2022/09/17 12:41:47;;;;;;;1.75;0.60;;;15.80;99.90;;;;;;4993527;28;20132;-83
2022/09/17 12:44:23;;;;;;;1.80;0.70;;;15.70;99.90;;;;;;5009748;28;20058;-84
2022/09/17 12:47:04;;;;;;;2.80;0.88;;;15.60;99.90;;;;;;5000561;28;20400;-82
2022/09/17 12:49:59;;;;;;;4.00;1.08;;;15.50;99.90;;;;;;5009696;28;20058;-84
2022/09/17 12:52:46;;;;;;;5.03;0.98;;;15.30;99.90;;;;;;4996881;28;20046;-84
2022/09/17 12:55:23;;;;;;;3.20;0.82;;;15.20;99.90;;;;;;5001320;28;20074;-83
2022/09/17 12:58:13;;;;;;;1.73;0.80;;;15.10;99.90;;;;;;5015901;28;20076;-83
2022/09/17 13:01:12;;;;;;;4.43;1.20;;;15.00;99.90;;;;;;5001820;28;20128;-83
2022/09/17 13:03:47;;;;;;;4.45;1.83;;;14.70;99.90;;;;;;5014663;28;20073;-84
2022/09/17 13:06:35;;;;;;;2.13;1.00;;;14.70;99.90;;;;;;5004875;28;20052;-83
2022/09/17 13:09:27;;;;;;;4.10;1.20;;;14.70;99.90;;;;;;5020569;28;20082;-83
2022/09/17 13:12:09;;;;;;;4.47;1.20;;;14.70;99.90;;;;;;5024486;28;20052;-82
2022/09/17 13:14:51;;;;;;;6.43;1.15;;;14.80;99.90;;;;;;5007432;28;20076;-83
2022/09/17 13:17:46;;;;;;;7.50;1.02;;;14.70;99.90;;;;;;5009435;28;20046;-84
2022/09/17 13:20:53;;;;;;;3.05;1.58;;;14.80;99.90;;;;;;5018037;28;20046;-83
2022/09/17 13:23:42;;;;;;;3.25;1.00;;;15.00;99.90;;;;;;5019889;28;20080;-84
2022/09/17 13:26:18;;;;;;;2.63;1.20;;;15.20;99.90;;;;;;5030372;28;20107;-83
2022/09/17 13:28:47;;;;;;;3.80;1.02;;;15.30;99.90;;;;;;5019463;28;20068;-85